createdAt,value
2022-11-12T00:00:13.118Z,0
2022-11-12T00:01:13.360Z,0
2022-11-12T00:02:13.646Z,0
2022-11-12T00:03:12.558Z,0
2022-11-12T00:04:12.796Z,0
2022-11-12T00:05:13.139Z,0
2022-11-12T00:06:13.011Z,0
2022-11-12T00:07:13.405Z,0
2022-11-12T00:08:13.240Z,0
2022-11-12T00:09:13.228Z,0
2022-11-12T00:10:12.948Z,0
2022-11-12T00:11:12.675Z,0
2022-11-12T00:12:12.917Z,0
2022-11-12T00:13:12.899Z,0
2022-11-12T00:14:12.908Z,0
2022-11-12T00:15:12.612Z,0
2022-11-12T00:16:12.356Z,0
2022-11-12T00:17:12.837Z,0
2022-11-12T00:18:13.443Z,0
2022-11-12T00:19:12.563Z,0
2022-11-12T00:20:12.828Z,0
2022-11-12T00:21:13.155Z,0
2022-11-12T00:22:12.510Z,0
2022-11-12T00:23:12.816Z,0
2022-11-12T00:24:12.989Z,0
2022-11-12T00:25:12.720Z,0
2022-11-12T00:26:12.702Z,0
2022-11-12T00:27:12.695Z,0
2022-11-12T00:28:12.953Z,0
2022-11-12T00:29:12.685Z,0
2022-11-12T00:30:12.640Z,0
2022-11-12T00:31:12.396Z,0
2022-11-12T00:32:12.616Z,0
2022-11-12T00:33:12.600Z,0
2022-11-12T00:34:12.940Z,0
2022-11-12T00:35:18.357Z,0
2022-11-12T00:36:12.556Z,0
2022-11-12T00:37:12.915Z,0
2022-11-12T00:38:12.802Z,0
2022-11-12T00:39:12.504Z,0
2022-11-12T00:40:12.835Z,0
2022-11-12T00:41:12.480Z,0
2022-11-12T00:42:12.457Z,0
2022-11-12T00:43:12.442Z,0
2022-11-12T00:44:13.004Z,0
2022-11-12T00:45:12.416Z,0
2022-11-12T00:46:12.724Z,0
2022-11-12T00:47:12.384Z,0
2022-11-12T00:48:12.120Z,0
2022-11-12T00:49:12.724Z,0
2022-11-12T00:50:13.337Z,0
2022-11-12T00:51:12.700Z,0
2022-11-12T00:52:12.673Z,0
2022-11-12T00:53:13.017Z,0
2022-11-12T00:54:12.368Z,0
2022-11-12T00:55:12.369Z,0
2022-11-12T00:56:12.595Z,0
2022-11-12T00:57:12.590Z,0
2022-11-12T00:58:12.315Z,0
2022-11-12T00:59:12.294Z,0
2022-11-12T01:00:12.542Z,0
2022-11-12T01:01:13.136Z,0
2022-11-12T01:02:12.526Z,0
2022-11-12T01:03:11.982Z,0
2022-11-12T01:04:12.695Z,0
2022-11-12T01:05:12.722Z,0
2022-11-12T01:06:12.833Z,0
2022-11-12T01:07:12.678Z,0
2022-11-12T01:08:12.176Z,0
2022-11-12T01:09:12.768Z,0
2022-11-12T01:10:12.392Z,0
2022-11-12T01:11:12.365Z,0
2022-11-12T01:12:11.840Z,0
2022-11-12T01:13:12.086Z,0
2022-11-12T01:14:12.341Z,0
2022-11-12T01:15:12.582Z,0
2022-11-12T01:16:12.556Z,0
2022-11-12T01:17:12.029Z,0
2022-11-12T01:18:12.006Z,0
2022-11-12T01:19:12.056Z,0
2022-11-12T01:20:12.490Z,0
2022-11-12T01:21:12.225Z,0
2022-11-12T01:22:12.808Z,0
2022-11-12T01:23:12.192Z,0
2022-11-12T01:24:12.428Z,0
2022-11-12T01:25:12.265Z,0
2022-11-12T01:26:11.929Z,0
2022-11-12T01:27:12.108Z,0
2022-11-12T01:28:11.849Z,0
2022-11-12T01:29:12.348Z,0
2022-11-12T01:30:11.849Z,0
2022-11-12T01:31:12.060Z,0
2022-11-12T01:32:12.034Z,0
2022-11-12T01:33:11.559Z,0
2022-11-12T01:34:12.045Z,0
2022-11-12T01:35:44.069Z,0
2022-11-12T01:36:11.981Z,0
2022-11-12T01:37:12.221Z,0
2022-11-12T01:38:12.553Z,0
2022-11-12T01:39:11.668Z,0
2022-11-12T01:40:11.410Z,0
2022-11-12T01:41:12.011Z,0
2022-11-12T01:42:11.370Z,0
2022-11-12T01:43:11.357Z,0
2022-11-12T01:44:12.101Z,0
2022-11-12T01:45:11.846Z,0
2022-11-12T01:46:11.572Z,0
2022-11-12T01:47:11.551Z,0
2022-11-12T01:48:11.801Z,0
2022-11-12T01:49:11.527Z,0
2022-11-12T01:50:12.076Z,0
2022-11-12T01:51:11.743Z,0
2022-11-12T01:52:11.723Z,0
2022-11-12T01:53:11.913Z,0
2022-11-12T01:54:12.304Z,0
2022-11-12T01:55:11.925Z,0
2022-11-12T01:56:12.021Z,0
2022-11-12T01:57:11.891Z,0
2022-11-12T01:58:11.493Z,0
2022-11-12T01:59:11.976Z,0
2022-11-12T02:00:11.456Z,0
2022-11-12T02:01:11.930Z,0
2022-11-12T02:02:11.936Z,0
2022-11-12T02:03:11.932Z,0
2022-11-12T02:04:11.645Z,0
2022-11-12T02:05:11.645Z,0
2022-11-12T02:06:11.893Z,0
2022-11-12T02:07:11.952Z,0
2022-11-12T02:08:11.119Z,0
2022-11-12T02:09:11.561Z,0
2022-11-12T02:10:12.175Z,0
2022-11-12T02:11:11.283Z,0
2022-11-12T02:12:11.511Z,0
2022-11-12T02:13:11.884Z,0
2022-11-12T02:14:11.491Z,0
2022-11-12T02:15:11.475Z,0
2022-11-12T02:16:11.455Z,0
2022-11-12T02:17:11.699Z,0
2022-11-12T02:18:11.420Z,0
2022-11-12T02:19:11.409Z,0
2022-11-12T02:20:11.638Z,0
2022-11-12T02:21:11.366Z,0
2022-11-12T02:22:11.605Z,0
2022-11-12T02:23:11.091Z,0
2022-11-12T02:24:11.592Z,0
2022-11-12T02:25:11.309Z,0
2022-11-12T02:26:11.659Z,0
2022-11-12T02:27:11.030Z,0
2022-11-12T02:28:11.514Z,0
2022-11-12T02:29:11.618Z,0
2022-11-12T02:30:11.240Z,0
2022-11-12T02:31:11.497Z,0
2022-11-12T02:32:11.195Z,0
2022-11-12T02:33:11.187Z,0
2022-11-12T02:34:10.927Z,0
2022-11-12T02:35:11.412Z,0
2022-11-12T02:36:11.130Z,0
2022-11-12T02:37:10.874Z,0
2022-11-12T02:38:10.866Z,0
2022-11-12T02:39:11.092Z,0
2022-11-12T02:40:10.818Z,0
2022-11-12T02:41:11.313Z,0
2022-11-12T02:42:11.663Z,0
2022-11-12T02:43:11.028Z,0
2022-11-12T02:44:11.013Z,0
2022-11-12T02:45:11.121Z,0
2022-11-12T02:46:11.248Z,0
2022-11-12T02:47:11.228Z,0
2022-11-12T02:48:13.997Z,0
2022-11-12T02:49:10.674Z,0
2022-11-12T02:50:10.911Z,0
2022-11-12T02:51:11.166Z,0
2022-11-12T02:52:10.881Z,0
2022-11-12T02:53:10.878Z,0
2022-11-12T02:54:11.117Z,0
2022-11-12T02:55:11.120Z,0
2022-11-12T02:56:10.821Z,0
2022-11-12T02:57:11.051Z,0
2022-11-12T02:58:11.225Z,0
2022-11-12T02:59:10.778Z,0
2022-11-12T03:00:10.773Z,0
2022-11-12T03:01:11.417Z,0
2022-11-12T03:02:10.555Z,0
2022-11-12T03:03:10.459Z,0
2022-11-12T03:04:11.201Z,0
2022-11-12T03:05:10.679Z,0
2022-11-12T03:06:10.414Z,0
2022-11-12T03:07:10.687Z,0
2022-11-12T03:08:10.644Z,0
2022-11-12T03:09:10.613Z,0
2022-11-12T03:10:10.373Z,0
2022-11-12T03:11:10.591Z,0
2022-11-12T03:12:10.574Z,0
2022-11-12T03:13:10.312Z,0
2022-11-12T03:14:10.885Z,0
2022-11-12T03:15:10.773Z,0
2022-11-12T03:16:10.514Z,0
2022-11-12T03:17:10.876Z,0
2022-11-12T03:18:10.488Z,0
2022-11-12T03:19:10.491Z,0
2022-11-12T03:20:10.450Z,0
2022-11-12T03:21:10.180Z,0
2022-11-12T03:22:10.671Z,0
2022-11-12T03:23:10.151Z,0
2022-11-12T03:24:10.374Z,0
2022-11-12T03:25:10.362Z,0
2022-11-12T03:26:10.111Z,0
2022-11-12T03:27:10.340Z,0
2022-11-12T03:28:10.574Z,0
2022-11-12T03:29:10.551Z,0
2022-11-12T03:30:10.896Z,0
2022-11-12T03:31:10.292Z,0
2022-11-12T03:32:10.522Z,0
2022-11-12T03:49:37.715Z,0
2022-11-12T03:50:36.952Z,0
2022-11-12T03:51:36.926Z,0
2022-11-12T03:52:36.904Z,0
2022-11-12T03:53:37.150Z,0
2022-11-12T03:54:36.362Z,0
2022-11-12T03:55:36.852Z,0
2022-11-12T03:56:36.650Z,0
2022-11-12T03:57:36.829Z,0
2022-11-12T03:58:36.875Z,0
2022-11-12T03:59:37.038Z,0
2022-11-12T04:00:36.781Z,0
2022-11-12T04:01:37.062Z,0
2022-11-12T04:02:36.989Z,0
2022-11-12T04:03:36.964Z,0
2022-11-12T04:04:36.954Z,0
2022-11-12T04:05:37.415Z,0
2022-11-12T04:06:36.814Z,0
2022-11-12T04:07:36.900Z,0
2022-11-12T04:08:36.951Z,0
2022-11-12T04:09:36.614Z,0
2022-11-12T04:10:36.356Z,0
2022-11-12T04:11:36.600Z,0
2022-11-12T04:12:36.813Z,0
2022-11-12T04:13:36.562Z,0
2022-11-12T04:14:36.549Z,0
2022-11-12T04:15:36.004Z,0
2022-11-12T04:16:36.756Z,0
2022-11-12T04:17:36.235Z,0
2022-11-12T04:18:36.203Z,0
2022-11-12T04:19:36.192Z,0
2022-11-12T04:20:36.437Z,0
2022-11-12T04:21:37.142Z,0
2022-11-12T04:22:36.657Z,0
2022-11-12T04:23:36.633Z,0
2022-11-12T04:24:36.621Z,0
2022-11-12T04:25:36.346Z,0
2022-11-12T04:26:36.581Z,0
2022-11-12T04:27:36.313Z,0
2022-11-12T04:28:36.568Z,0
2022-11-12T04:29:42.092Z,0
2022-11-12T04:30:36.013Z,0
2022-11-12T04:31:35.994Z,0
2022-11-12T04:32:35.980Z,0
2022-11-12T04:33:36.474Z,0
2022-11-12T04:34:36.488Z,0
2022-11-12T04:35:36.445Z,0
2022-11-12T04:36:35.904Z,0
2022-11-12T04:37:36.902Z,0
2022-11-12T04:38:36.455Z,0
2022-11-12T04:39:36.128Z,0
2022-11-12T04:40:36.363Z,0
2022-11-12T04:41:36.130Z,0
2022-11-12T04:42:36.333Z,0
2022-11-12T04:43:36.064Z,0
2022-11-12T04:44:36.036Z,0
2022-11-12T04:45:35.769Z,0
2022-11-12T04:46:36.267Z,0
2022-11-12T04:47:35.988Z,0
2022-11-12T04:48:36.289Z,0
2022-11-12T04:49:35.957Z,0
2022-11-12T04:50:35.693Z,0
2022-11-12T04:51:35.915Z,0
2022-11-12T04:52:36.147Z,0
2022-11-12T04:53:36.609Z,0
2022-11-12T04:54:35.624Z,0
2022-11-12T04:55:35.902Z,0
2022-11-12T04:56:36.129Z,0
2022-11-12T04:57:35.614Z,0
2022-11-12T04:58:36.690Z,0
2022-11-12T04:59:35.883Z,0
2022-11-12T05:00:35.569Z,0
2022-11-12T05:01:36.317Z,0
2022-11-12T05:02:35.778Z,0
2022-11-12T05:03:35.766Z,0
2022-11-12T05:04:35.776Z,0
2022-11-12T05:05:40.700Z,0
2022-11-12T05:06:36.095Z,0
2022-11-12T05:07:35.694Z,0
2022-11-12T05:08:35.703Z,0
2022-11-12T05:09:36.419Z,0
2022-11-12T05:10:35.658Z,0
2022-11-12T05:11:35.115Z,0
2022-11-12T05:12:35.866Z,0
2022-11-12T05:13:35.378Z,0
2022-11-12T05:14:35.331Z,0
2022-11-12T05:15:35.570Z,0
2022-11-12T05:16:35.536Z,0
2022-11-12T05:17:35.023Z,0
2022-11-12T05:18:35.624Z,0
2022-11-12T05:19:35.503Z,0
2022-11-12T05:20:35.024Z,0
2022-11-12T05:21:37.992Z,0
2022-11-12T05:23:10.114Z,0
2022-11-12T05:23:35.421Z,0
2022-11-12T05:24:49.569Z,0
2022-11-12T05:25:35.524Z,0
2022-11-12T05:26:35.380Z,0
2022-11-12T05:27:35.386Z,0
2022-11-12T05:28:35.514Z,0
2022-11-12T05:29:35.575Z,0
2022-11-12T05:30:35.318Z,0
2022-11-12T05:31:34.806Z,0
2022-11-12T05:32:35.281Z,0
2022-11-12T05:33:35.521Z,0
2022-11-12T05:34:35.242Z,0
2022-11-12T05:35:35.228Z,0
2022-11-12T05:36:35.208Z,0
2022-11-12T05:37:35.451Z,0
2022-11-12T05:38:35.632Z,0
2022-11-12T05:39:35.173Z,0
2022-11-12T05:40:35.759Z,0
2022-11-12T05:42:16.812Z,0
2022-11-12T05:42:34.853Z,0
2022-11-12T05:43:34.847Z,0
2022-11-12T05:44:34.576Z,0
2022-11-12T05:45:35.063Z,0
2022-11-12T05:46:35.040Z,0
2022-11-12T05:47:35.029Z,0
2022-11-12T05:48:36.465Z,0
2022-11-12T05:49:34.741Z,0
2022-11-12T05:51:15.758Z,4
2022-11-12T05:51:34.448Z,4
2022-11-12T05:52:34.952Z,0
2022-11-12T05:53:35.190Z,4
2022-11-12T05:54:34.650Z,4
2022-11-12T05:55:42.258Z,4
2022-11-12T05:56:35.126Z,4
2022-11-12T05:57:34.717Z,8
2022-11-12T05:58:34.942Z,4
2022-11-12T05:59:34.833Z,8
2022-11-12T06:00:34.798Z,8
2022-11-12T06:01:35.052Z,12
2022-11-12T06:02:35.028Z,12
2022-11-12T06:03:35.014Z,16
2022-11-12T06:04:34.492Z,20
2022-11-12T06:05:34.718Z,20
2022-11-12T06:06:34.971Z,24
2022-11-12T06:07:34.698Z,28
2022-11-12T06:08:34.828Z,32
2022-11-12T06:09:34.665Z,36
2022-11-12T06:10:34.883Z,40
2022-11-12T06:11:35.239Z,44
2022-11-12T06:12:34.600Z,52
2022-11-12T06:13:34.703Z,56
2022-11-12T06:14:34.304Z,64
2022-11-12T06:15:41.698Z,72
2022-11-12T06:16:34.297Z,80
2022-11-12T06:17:34.836Z,84
2022-11-12T06:18:34.860Z,92
2022-11-12T06:19:34.487Z,100
2022-11-12T06:20:34.476Z,108
2022-11-12T06:21:34.840Z,116
2022-11-12T06:22:34.688Z,124
2022-11-12T06:23:34.680Z,132
2022-11-12T06:24:40.556Z,144
2022-11-12T06:25:34.389Z,156
2022-11-12T06:26:34.366Z,164
2022-11-12T06:27:34.961Z,180
2022-11-12T06:28:34.922Z,188
2022-11-12T06:29:34.451Z,200
2022-11-12T06:30:34.299Z,212
2022-11-12T06:31:34.296Z,228
2022-11-12T06:32:34.526Z,240
2022-11-12T06:33:33.745Z,256
2022-11-12T06:34:34.231Z,276
2022-11-12T06:35:33.965Z,292
2022-11-12T06:36:33.941Z,308
2022-11-12T06:37:34.443Z,320
2022-11-12T06:38:34.552Z,340
2022-11-12T06:39:34.139Z,356
2022-11-12T06:40:34.391Z,376
2022-11-12T06:41:33.875Z,396
2022-11-12T06:42:34.360Z,416
2022-11-12T06:43:34.693Z,436
2022-11-12T06:44:34.069Z,448
2022-11-12T06:45:34.164Z,468
2022-11-12T06:46:33.769Z,484
2022-11-12T06:47:34.021Z,496
2022-11-12T06:48:34.413Z,508
2022-11-12T06:49:33.727Z,516
2022-11-12T06:50:34.176Z,528
2022-11-12T06:51:34.448Z,544
2022-11-12T06:52:34.670Z,552
2022-11-12T06:53:34.386Z,564
2022-11-12T06:54:34.367Z,576
2022-11-12T06:55:33.838Z,584
2022-11-12T06:56:34.366Z,600
2022-11-12T06:57:34.063Z,620
2022-11-12T06:58:34.513Z,636
2022-11-12T06:59:34.896Z,648
2022-11-12T07:00:34.274Z,664
2022-11-12T07:01:34.660Z,680
2022-11-12T07:02:34.238Z,700
2022-11-12T07:03:34.470Z,716
2022-11-12T07:04:33.947Z,732
2022-11-12T07:05:34.186Z,752
2022-11-12T07:06:34.268Z,764
2022-11-12T07:07:34.047Z,780
2022-11-12T07:08:35.005Z,800
2022-11-12T07:09:34.114Z,820
2022-11-12T07:10:33.657Z,840
2022-11-12T07:11:33.821Z,860
2022-11-12T07:12:33.821Z,880
2022-11-12T07:13:34.307Z,900
2022-11-12T07:14:34.022Z,924
2022-11-12T07:15:34.629Z,948
2022-11-12T07:16:34.253Z,972
2022-11-12T07:17:34.370Z,996
2022-11-12T07:18:34.812Z,1016
2022-11-12T07:19:34.220Z,1044
2022-11-12T07:20:34.018Z,1068
2022-11-12T07:21:34.176Z,1088
2022-11-12T07:22:33.890Z,1116
2022-11-12T07:23:33.629Z,1136
2022-11-12T07:24:33.859Z,1164
2022-11-12T07:25:34.116Z,1188
2022-11-12T07:26:33.566Z,1216
2022-11-12T07:27:33.812Z,1240
2022-11-12T07:28:34.757Z,1268
2022-11-12T07:29:53.333Z,1304
2022-11-12T07:30:34.053Z,1320
2022-11-12T07:31:34.364Z,1344
2022-11-12T07:32:37.392Z,1368
2022-11-12T07:33:33.842Z,1388
2022-11-12T07:34:33.703Z,1412
2022-11-12T07:35:33.426Z,1432
2022-11-12T07:36:33.732Z,1452
2022-11-12T07:37:33.650Z,1476
2022-11-12T07:38:34.656Z,1496
2022-11-12T07:39:33.623Z,1520
2022-11-12T07:40:33.878Z,1540
2022-11-12T07:41:33.837Z,1560
2022-11-12T07:42:33.827Z,1576
2022-11-12T07:43:33.555Z,1596
2022-11-12T07:44:33.271Z,1608
2022-11-12T07:45:33.259Z,1628
2022-11-12T07:46:33.749Z,1648
2022-11-12T07:47:34.096Z,1672
2022-11-12T07:48:33.875Z,1692
2022-11-12T07:49:33.566Z,1712
2022-11-12T07:50:33.185Z,1732
2022-11-12T07:51:33.192Z,1744
2022-11-12T07:52:33.402Z,1756
2022-11-12T07:53:33.383Z,1768
2022-11-12T07:54:33.624Z,1776
2022-11-12T07:55:33.107Z,1780
2022-11-12T07:56:33.371Z,1792
2022-11-12T07:57:33.304Z,1788
2022-11-12T07:58:34.147Z,1792
2022-11-12T07:59:33.029Z,1792
2022-11-12T08:00:33.271Z,1788
2022-11-12T08:01:33.712Z,1788
2022-11-12T08:02:33.243Z,1784
2022-11-12T08:03:33.830Z,1788
2022-11-12T08:04:33.455Z,1788
2022-11-12T08:05:33.306Z,1784
2022-11-12T08:06:33.225Z,1780
2022-11-12T08:07:33.875Z,1772
2022-11-12T08:08:34.277Z,1764
2022-11-12T08:09:33.123Z,1752
2022-11-12T08:10:33.101Z,1740
2022-11-12T08:11:33.087Z,1732
2022-11-12T08:12:33.325Z,1720
2022-11-12T08:13:32.836Z,1716
2022-11-12T08:14:33.049Z,1708
2022-11-12T08:15:32.513Z,1700
2022-11-12T08:16:33.013Z,1696
2022-11-12T08:17:33.256Z,1684
2022-11-12T08:18:34.053Z,1684
2022-11-12T08:19:33.563Z,1684
2022-11-12T08:20:32.717Z,1684
2022-11-12T08:21:33.046Z,1684
2022-11-12T08:22:32.413Z,1684
2022-11-12T08:23:32.887Z,1688
2022-11-12T08:24:33.132Z,1692
2022-11-12T08:25:32.355Z,1700
2022-11-12T08:26:32.599Z,1708
2022-11-12T08:27:32.318Z,1712
2022-11-12T08:28:33.468Z,1720
2022-11-12T08:29:32.550Z,1724
2022-11-12T08:30:32.564Z,1724
2022-11-12T08:31:32.764Z,1728
2022-11-12T08:32:33.153Z,1724
2022-11-12T08:33:32.500Z,1724
2022-11-12T08:34:32.470Z,1724
2022-11-12T08:35:33.321Z,1724
2022-11-12T08:36:32.705Z,1716
2022-11-12T08:37:32.800Z,1728
2022-11-12T08:38:33.506Z,1744
2022-11-12T08:39:32.895Z,1776
2022-11-12T08:40:32.221Z,1820
2022-11-12T08:41:32.109Z,1860
2022-11-12T08:42:32.349Z,1912
2022-11-12T08:43:32.831Z,1960
2022-11-12T08:44:32.058Z,2008
2022-11-12T08:45:32.554Z,2040
2022-11-12T08:46:32.541Z,2076
2022-11-12T08:47:32.514Z,2096
2022-11-12T08:48:33.314Z,2104
2022-11-12T08:49:32.236Z,2104
2022-11-12T08:50:32.568Z,2104
2022-11-12T08:51:33.075Z,2108
2022-11-12T08:52:32.447Z,2112
2022-11-12T08:53:32.555Z,2116
2022-11-12T08:54:32.418Z,2124
2022-11-12T08:55:32.647Z,2140
2022-11-12T08:56:32.128Z,2156
2022-11-12T08:57:32.628Z,2184
2022-11-12T08:58:33.555Z,2208
2022-11-12T08:59:32.087Z,2228
2022-11-12T09:00:32.585Z,2256
2022-11-12T09:01:32.590Z,2284
2022-11-12T09:02:32.555Z,2316
2022-11-12T09:03:32.034Z,2356
2022-11-12T09:04:32.264Z,2396
2022-11-12T09:05:32.000Z,2436
2022-11-12T09:06:31.980Z,2472
2022-11-12T09:08:02.809Z,2512
2022-11-12T09:08:33.347Z,2516
2022-11-12T09:09:32.622Z,2528
2022-11-12T09:10:31.929Z,2512
2022-11-12T09:11:32.184Z,2492
2022-11-12T09:12:32.402Z,2464
2022-11-12T09:13:32.789Z,2424
2022-11-12T09:14:32.125Z,2388
2022-11-12T09:15:47.887Z,2348
2022-11-12T09:16:31.901Z,2316
2022-11-12T09:17:31.828Z,2280
2022-11-12T09:18:33.389Z,2256
2022-11-12T09:19:31.807Z,2228
2022-11-12T09:20:32.312Z,2200
2022-11-12T09:21:31.769Z,2168
2022-11-12T09:22:31.766Z,2128
2022-11-12T09:23:32.613Z,2088
2022-11-12T09:24:32.240Z,2056
2022-11-12T09:25:32.095Z,2028
2022-11-12T09:26:31.968Z,2004
2022-11-12T09:27:31.944Z,1992
2022-11-12T09:28:32.870Z,1988
2022-11-12T09:29:32.181Z,1984
2022-11-12T09:30:31.908Z,1988
2022-11-12T09:31:31.646Z,1984
2022-11-12T09:32:32.468Z,1976
2022-11-12T09:33:32.695Z,1972
2022-11-12T09:34:32.425Z,1956
2022-11-12T09:35:32.680Z,1944
2022-11-12T09:36:35.901Z,1936
2022-11-12T09:37:32.127Z,1920
2022-11-12T09:38:33.164Z,1908
2022-11-12T09:39:32.709Z,1888
2022-11-12T09:40:32.080Z,1876
2022-11-12T09:41:32.703Z,1860
2022-11-12T09:42:32.319Z,1848
2022-11-12T09:43:32.309Z,1836
2022-11-12T09:44:39.063Z,1832
2022-11-12T09:45:32.286Z,1828
2022-11-12T09:46:34.712Z,1824
2022-11-12T09:47:32.014Z,1820
2022-11-12T09:48:33.029Z,1812
2022-11-12T09:49:32.222Z,1800
2022-11-12T09:50:32.230Z,1784
2022-11-12T09:51:32.206Z,1780
2022-11-12T09:52:32.183Z,1772
2022-11-12T09:53:31.917Z,1776
2022-11-12T09:54:32.432Z,1776
2022-11-12T09:55:32.762Z,1780
2022-11-12T09:56:32.145Z,1776
2022-11-12T09:57:32.491Z,1772
2022-11-12T09:58:33.081Z,1768
2022-11-12T09:59:32.105Z,1772
2022-11-12T10:00:31.839Z,1772
2022-11-12T10:01:32.339Z,1768
2022-11-12T10:02:32.075Z,1772
2022-11-12T10:03:31.797Z,1780
2022-11-12T10:04:31.792Z,1784
2022-11-12T10:05:32.029Z,1784
2022-11-12T10:06:32.237Z,1784
2022-11-12T10:07:32.755Z,1792
2022-11-12T10:08:33.211Z,1796
2022-11-12T10:09:32.542Z,1800
2022-11-12T10:10:31.975Z,1812
2022-11-12T10:11:32.568Z,1820
2022-11-12T10:12:31.950Z,1828
2022-11-12T10:13:32.304Z,1836
2022-11-12T10:14:31.766Z,1840
2022-11-12T10:15:32.261Z,1848
2022-11-12T10:16:31.985Z,1856
2022-11-12T10:17:31.978Z,1868
2022-11-12T10:18:32.911Z,1876
2022-11-12T10:19:32.224Z,1880
2022-11-12T10:20:38.749Z,1880
2022-11-12T10:21:31.678Z,1880
2022-11-12T10:22:31.935Z,1880
2022-11-12T10:23:32.170Z,1884
2022-11-12T10:24:32.150Z,1884
2022-11-12T10:25:31.877Z,1888
2022-11-12T10:26:31.621Z,1892
2022-11-12T10:27:32.270Z,1896
2022-11-12T10:28:39.196Z,1908
2022-11-12T10:29:32.214Z,1916
2022-11-12T10:30:32.094Z,1924
2022-11-12T10:31:32.092Z,1940
2022-11-12T10:32:31.564Z,1940
2022-11-12T10:33:31.545Z,1952
2022-11-12T10:34:32.054Z,1964
2022-11-12T10:35:32.039Z,1976
2022-11-12T10:36:32.032Z,1996
2022-11-12T10:37:32.006Z,2016
2022-11-12T10:38:32.635Z,2032
2022-11-12T10:39:31.510Z,2040
2022-11-12T10:40:31.212Z,2044
2022-11-12T10:41:31.722Z,2028
2022-11-12T10:42:31.711Z,2032
2022-11-12T10:43:33.335Z,2028
2022-11-12T10:44:31.681Z,2084
2022-11-12T10:45:31.785Z,2076
2022-11-12T10:46:31.668Z,2084
2022-11-12T10:47:31.404Z,2100
2022-11-12T10:48:35.902Z,2100
2022-11-12T10:49:31.655Z,2076
2022-11-12T10:50:31.635Z,2080
2022-11-12T10:51:31.370Z,2076
2022-11-12T10:52:31.874Z,2052
2022-11-12T10:53:31.345Z,2064
2022-11-12T10:54:31.844Z,2084
2022-11-12T10:55:31.331Z,2060
2022-11-12T10:56:31.564Z,2072
2022-11-12T10:57:31.820Z,2092
2022-11-12T10:58:32.541Z,2116
2022-11-12T10:59:32.185Z,2132
2022-11-12T11:00:31.541Z,2104
2022-11-12T11:01:41.692Z,2100
2022-11-12T11:02:31.878Z,2184
2022-11-12T11:03:31.509Z,2168
2022-11-12T11:04:31.490Z,2192
2022-11-12T11:05:31.252Z,2148
2022-11-12T11:06:31.481Z,2132
2022-11-12T11:07:31.238Z,2176
2022-11-12T11:08:39.124Z,2168
2022-11-12T11:09:31.715Z,2220
2022-11-12T11:10:31.702Z,2272
2022-11-12T11:11:31.179Z,2324
2022-11-12T11:12:31.423Z,2332
2022-11-12T11:13:31.664Z,2352
2022-11-12T11:14:31.405Z,2384
2022-11-12T11:15:32.013Z,2412
2022-11-12T11:16:31.399Z,2448
2022-11-12T11:17:31.754Z,2504
2022-11-12T11:18:32.408Z,2532
2022-11-12T11:19:31.111Z,2560
2022-11-12T11:20:31.339Z,2568
2022-11-12T11:21:31.999Z,2596
2022-11-12T11:22:31.346Z,2564
2022-11-12T11:23:31.085Z,2544
2022-11-12T11:24:31.586Z,2556
2022-11-12T11:25:31.555Z,2536
2022-11-12T11:26:31.553Z,2556
2022-11-12T11:27:31.554Z,2604
2022-11-12T11:28:32.577Z,2636
2022-11-12T11:29:31.273Z,2640
2022-11-12T11:30:31.261Z,2664
2022-11-12T11:31:31.856Z,2708
2022-11-12T11:32:37.523Z,2720
2022-11-12T11:33:31.351Z,2744
2022-11-12T11:34:31.243Z,2760
2022-11-12T11:35:30.981Z,2804
2022-11-12T11:36:31.474Z,2812
2022-11-12T11:37:31.557Z,2880
2022-11-12T11:38:32.321Z,2904
2022-11-12T11:39:31.182Z,2924
2022-11-12T11:40:31.180Z,2964
2022-11-12T11:41:31.163Z,2992
2022-11-12T11:42:31.437Z,2996
2022-11-12T11:43:30.893Z,3052
2022-11-12T11:44:31.711Z,3108
2022-11-12T11:45:30.618Z,3164
2022-11-12T11:46:30.604Z,3204
2022-11-12T11:48:05.296Z,3328
2022-11-12T11:48:31.892Z,3356
2022-11-12T11:49:31.531Z,3408
2022-11-12T11:50:31.088Z,3440
2022-11-12T11:51:33.380Z,3488
2022-11-12T11:52:30.821Z,3536
2022-11-12T11:53:30.803Z,3552
2022-11-12T11:54:31.303Z,3532
2022-11-12T11:55:31.041Z,3608
2022-11-12T11:56:30.529Z,3636
2022-11-12T11:57:31.027Z,3664
2022-11-12T11:58:31.943Z,3676
2022-11-12T11:59:30.764Z,3660
2022-11-12T12:00:31.008Z,3644
2022-11-12T12:01:31.006Z,3628
2022-11-12T12:02:31.239Z,3620
2022-11-12T12:03:37.812Z,3608
2022-11-12T12:04:30.979Z,3620
2022-11-12T12:05:30.847Z,3628
2022-11-12T12:06:31.224Z,3648
2022-11-12T12:07:30.447Z,3656
2022-11-12T12:08:32.105Z,3656
2022-11-12T12:09:30.952Z,3664
2022-11-12T12:11:16.717Z,3636
2022-11-12T12:11:30.660Z,3624
2022-11-12T12:12:30.922Z,3600
2022-11-12T12:13:30.638Z,3572
2022-11-12T12:14:30.894Z,3552
2022-11-12T12:15:30.871Z,3496
2022-11-12T12:16:31.139Z,3444
2022-11-12T12:17:36.749Z,3396
2022-11-12T12:18:32.171Z,3356
2022-11-12T12:19:31.991Z,3296
2022-11-12T12:20:31.622Z,3224
2022-11-12T12:21:31.470Z,3232
2022-11-12T12:22:31.343Z,3248
2022-11-12T12:23:31.588Z,3204
2022-11-12T12:24:31.335Z,3132
2022-11-12T12:25:31.576Z,3112
2022-11-12T12:26:31.059Z,3084
2022-11-12T12:27:31.053Z,3048
2022-11-12T12:28:32.383Z,3036
2022-11-12T12:29:31.045Z,3040
2022-11-12T12:30:31.053Z,3032
2022-11-12T12:31:31.270Z,3048
2022-11-12T12:32:31.692Z,3040
2022-11-12T12:33:31.524Z,3040
2022-11-12T12:34:31.526Z,3064
2022-11-12T12:35:31.864Z,3040
2022-11-12T12:36:31.501Z,3016
2022-11-12T12:37:31.370Z,2992
2022-11-12T12:38:32.382Z,2940
2022-11-12T12:39:30.965Z,2912
2022-11-12T12:40:31.470Z,2888
2022-11-12T12:41:30.960Z,2868
2022-11-12T12:42:31.200Z,2872
2022-11-12T12:43:30.947Z,2864
2022-11-12T12:44:31.436Z,2844
2022-11-12T12:45:38.526Z,2800
2022-11-12T12:46:31.435Z,2756
2022-11-12T12:47:31.152Z,2700
2022-11-12T12:48:32.220Z,2656
2022-11-12T12:49:31.147Z,2620
2022-11-12T12:50:30.878Z,2560
2022-11-12T12:51:31.490Z,2512
2022-11-12T12:52:31.392Z,2480
2022-11-12T12:53:31.273Z,2448
2022-11-12T12:54:31.104Z,2416
2022-11-12T12:55:31.109Z,2376
2022-11-12T12:56:31.102Z,2316
2022-11-12T12:57:31.150Z,2288
2022-11-12T12:58:32.454Z,2288
2022-11-12T12:59:30.561Z,2260
2022-11-12T13:00:31.074Z,2232
2022-11-12T13:01:31.514Z,2212
2022-11-12T13:02:31.052Z,2176
2022-11-12T13:03:30.783Z,2152
2022-11-12T13:04:31.064Z,2124
2022-11-12T13:05:31.301Z,2112
2022-11-12T13:06:31.025Z,2088
2022-11-12T13:07:31.808Z,2088
2022-11-12T13:08:32.563Z,2076
2022-11-12T13:09:31.530Z,2076
2022-11-12T13:10:30.734Z,2068
2022-11-12T13:11:31.239Z,2044
2022-11-12T13:12:30.717Z,2040
2022-11-12T13:13:37.427Z,2024
2022-11-12T13:14:30.718Z,2004
2022-11-12T13:15:30.692Z,1996
2022-11-12T13:16:31.197Z,1976
2022-11-12T13:17:30.680Z,1964
2022-11-12T13:18:31.154Z,1972
2022-11-12T13:19:30.929Z,1972
2022-11-12T13:20:30.689Z,1964
2022-11-12T13:21:30.901Z,1960
2022-11-12T13:22:30.650Z,1948
2022-11-12T13:23:38.129Z,1932
2022-11-12T13:24:30.878Z,1932
2022-11-12T13:25:30.985Z,1936
2022-11-12T13:26:31.133Z,1928
2022-11-12T13:27:30.645Z,1916
2022-11-12T13:28:32.159Z,1912
2022-11-12T13:29:31.090Z,1908
2022-11-12T13:30:30.862Z,1912
2022-11-12T13:31:30.604Z,1912
2022-11-12T13:32:31.081Z,1912
2022-11-12T13:33:30.555Z,1904
2022-11-12T13:34:31.070Z,1900
2022-11-12T13:35:30.801Z,1880
2022-11-12T13:36:30.780Z,1864
2022-11-12T13:37:31.027Z,1836
2022-11-12T13:38:32.220Z,1804
2022-11-12T13:39:31.365Z,1776
2022-11-12T13:40:30.750Z,1744
2022-11-12T13:41:31.122Z,1716
2022-11-12T13:42:31.016Z,1692
2022-11-12T13:43:31.474Z,1668
2022-11-12T13:44:30.720Z,1644
2022-11-12T13:45:30.721Z,1624
2022-11-12T13:46:30.724Z,1612
2022-11-12T13:47:30.446Z,1596
2022-11-12T13:48:32.062Z,1576
2022-11-12T13:49:30.432Z,1552
2022-11-12T13:50:30.685Z,1540
2022-11-12T13:51:30.427Z,1516
2022-11-12T13:52:30.662Z,1496
2022-11-12T13:53:30.398Z,1484
2022-11-12T13:54:30.920Z,1476
2022-11-12T13:55:31.105Z,1460
2022-11-12T13:56:30.117Z,1456
2022-11-12T13:57:30.734Z,1444
2022-11-12T13:58:32.057Z,1436
2022-11-12T13:59:30.605Z,1428
2022-11-12T14:00:30.663Z,1412
2022-11-12T14:01:30.823Z,1396
2022-11-12T14:02:30.471Z,1384
2022-11-12T14:03:30.309Z,1368
2022-11-12T14:04:30.547Z,1356
2022-11-12T14:05:30.293Z,1336
2022-11-12T14:06:30.547Z,1320
2022-11-12T14:07:30.606Z,1304
2022-11-12T14:08:31.824Z,1280
2022-11-12T14:09:30.666Z,1264
2022-11-12T14:10:30.503Z,1248
2022-11-12T14:11:31.117Z,1228
2022-11-12T14:12:29.969Z,1212